Time;durP1;ratioP1;P1;durP2;ratioP2;P2;SDS_P1;SDS_P2;PMS_P1;PMS_P2;Temp;Humidity;BMP_temperature;BMP_pressure;BME280_temperature;BME280_humidity;BME280_pressure;Samples;Min_cycle;Max_cycle;Signal;HPM_P1;HPM_P2
2023/04/24 00:01:47;;;;;;;;;;;21.90;85.50;;;;;;5114159;28;20007;-50
2023/04/24 00:04:16;;;;;;;;;;;21.90;85.50;;;;;;5114385;28;19908;-54
2023/04/24 00:06:42;;;;;;;;;;;21.90;85.80;;;;;;5114036;28;19947;-56
2023/04/24 00:09:09;;;;;;;;;;;21.80;85.80;;;;;;5114364;28;19912;-52
2023/04/24 00:11:35;;;;;;;;;;;21.80;85.80;;;;;;5114277;28;20006;-54
2023/04/24 00:14:01;;;;;;;;;;;21.80;85.80;;;;;;5113500;28;20000;-55
2023/04/24 00:16:26;;;;;;;;;;;21.80;86.00;;;;;;5114219;28;20386;-52
2023/04/24 00:18:52;;;;;;;;;;;21.70;86.00;;;;;;5113991;28;19912;-51
2023/04/24 00:21:18;;;;;;;;;;;21.70;86.10;;;;;;5114035;28;19948;-55
2023/04/24 00:23:43;;;;;;;;;;;21.70;86.20;;;;;;5114462;28;19908;-49
2023/04/24 00:26:09;;;;;;;;;;;21.70;86.10;;;;;;5114182;28;20016;-51
2023/04/24 00:28:34;;;;;;;;;;;21.70;85.80;;;;;;5113977;28;19908;-50
2023/04/24 00:31:00;;;;;;;;;;;21.80;85.90;;;;;;5113917;28;19918;-54
2023/04/24 00:33:25;;;;;;;;;;;21.90;85.80;;;;;;5113888;28;19907;-54
2023/04/24 00:35:51;;;;;;;;;;;21.90;85.40;;;;;;5113969;28;20315;-50
2023/04/24 00:38:16;;;;;;;;;;;22.00;85.20;;;;;;5114117;28;19970;-52
2023/04/24 00:40:41;;;;;;;;;;;22.10;85.10;;;;;;5112714;28;19915;-55
2023/04/24 00:43:07;;;;;;;;;;;22.10;85.00;;;;;;5114010;28;20285;-51
2023/04/24 00:45:33;;;;;;;;;;;22.10;84.90;;;;;;5113962;28;19962;-54
2023/04/24 00:47:59;;;;;;;;;;;22.10;84.80;;;;;;5117299;28;19919;-51
2023/04/24 00:50:25;;;;;;;;;;;22.00;84.80;;;;;;5117640;28;19908;-53
2023/04/24 00:52:50;;;;;;;;;;;22.00;85.00;;;;;;5117490;28;19920;-56
2023/04/24 00:55:16;;;;;;;;;;;22.00;85.00;;;;;;5117194;28;19908;-51
2023/04/24 00:57:42;;;;;;;;;;;21.90;85.60;;;;;;5117356;28;19911;-53
2023/04/24 01:00:11;;;;;;;;;;;21.90;85.10;;;;;;5117196;28;19912;-55
2023/04/24 01:02:39;;;;;;;;;;;21.90;85.10;;;;;;5117346;28;20350;-51
2023/04/24 01:05:05;;;;;;;;;;;21.80;85.30;;;;;;5117367;28;19908;-52
2023/04/24 01:07:31;;;;;;;;;;;21.80;85.40;;;;;;5117338;27;19907;-50
2023/04/24 01:09:57;;;;;;;;;;;21.80;85.50;;;;;;5116984;28;19908;-56
2023/04/24 01:12:22;;;;;;;;;;;21.70;85.50;;;;;;5117229;28;19911;-50
2023/04/24 01:14:48;;;;;;;;;;;21.70;85.60;;;;;;5117226;28;20308;-53
2023/04/24 01:17:13;;;;;;;;;;;21.70;85.60;;;;;;5116728;28;19955;-50
2023/04/24 01:19:39;;;;;;;;;;;21.70;85.60;;;;;;5117046;28;20358;-51
2023/04/24 01:22:12;;;;;;;;;;;21.70;85.60;;;;;;5117098;28;19914;-54
2023/04/24 01:24:38;;;;;;;;;;;21.80;85.60;;;;;;5117025;28;19912;-55
2023/04/24 01:27:03;;;;;;;;;;;21.90;85.30;;;;;;5116615;28;19934;-55
2023/04/24 01:29:29;;;;;;;;;;;22.00;84.90;;;;;;5114240;28;19916;-50
2023/04/24 01:31:54;;;;;;;;;;;22.10;84.30;;;;;;5114835;28;19908;-55
2023/04/24 01:34:20;;;;;;;;;;;22.20;84.40;;;;;;5114801;28;20046;-50
2023/04/24 01:36:46;;;;;;;;;;;22.30;84.40;;;;;;5116617;28;20384;-51
2023/04/24 01:39:12;;;;;;;;;;;22.20;78.60;;;;;;5116474;28;19912;-54
2023/04/24 01:41:37;;;;;;;;;;;22.10;80.80;;;;;;5116646;28;20006;-54
2023/04/24 01:44:03;;;;;;;;;;;22.10;82.60;;;;;;5116236;28;20270;-54
2023/04/24 01:46:30;;;;;;;;;;;22.10;83.00;;;;;;5116252;28;19919;-52
2023/04/24 01:48:56;;;;;;;;;;;22.10;83.30;;;;;;5116401;28;19915;-51
2023/04/24 01:51:21;;;;;;;;;;;22.00;83.20;;;;;;5116813;28;20258;-57
2023/04/24 01:53:47;;;;;;;;;;;22.00;83.70;;;;;;5116476;28;19908;-50
2023/04/24 01:56:13;;;;;;;;;;;22.00;83.90;;;;;;5116528;28;19918;-52
2023/04/24 01:58:39;;;;;;;;;;;21.90;83.60;;;;;;5113912;28;19916;-54
2023/04/24 02:01:06;;;;;;;;;;;21.90;84.10;;;;;;5116098;28;19914;-50
2023/04/24 02:03:31;;;;;;;;;;;21.80;84.70;;;;;;5114828;28;19957;-52
2023/04/24 02:05:57;;;;;;;;;;;21.80;84.30;;;;;;5115923;28;19912;-55
2023/04/24 02:08:22;;;;;;;;;;;21.80;84.60;;;;;;5115998;28;20350;-50
2023/04/24 02:10:48;;;;;;;;;;;21.70;84.70;;;;;;5116147;28;20002;-51
2023/04/24 02:13:13;;;;;;;;;;;21.70;84.90;;;;;;5116399;28;19907;-54
2023/04/24 02:15:39;;;;;;;;;;;21.70;85.00;;;;;;5115941;28;19915;-53
2023/04/24 02:18:04;;;;;;;;;;;21.60;85.10;;;;;;5127019;27;20281;-54
2023/04/24 02:20:30;;;;;;;;;;;21.60;85.10;;;;;;5115927;28;19914;-51
2023/04/24 02:22:55;;;;;;;;;;;21.50;85.20;;;;;;5115921;28;19949;-51
2023/04/24 02:25:21;;;;;;;;;;;21.60;85.40;;;;;;5115840;28;20283;-55
2023/04/24 02:27:46;;;;;;;;;;;21.60;85.40;;;;;;5115427;28;19912;-50
2023/04/24 02:30:12;;;;;;;;;;;21.60;85.30;;;;;;5113586;28;20294;-55
2023/04/24 02:32:38;;;;;;;;;;;21.70;85.00;;;;;;5113338;27;19908;-51
2023/04/24 02:35:04;;;;;;;;;;;21.90;85.00;;;;;;5113251;28;20343;-52
2023/04/24 02:37:29;;;;;;;;;;;22.00;85.10;;;;;;5112104;28;19964;-52
2023/04/24 02:39:55;;;;;;;;;;;22.20;84.20;;;;;;5113259;28;20278;-51
2023/04/24 02:42:20;;;;;;;;;;;22.30;83.60;;;;;;5111974;28;19957;-51
2023/04/24 02:44:46;;;;;;;;;;;22.40;83.20;;;;;;5114660;28;19908;-56
2023/04/24 02:47:11;;;;;;;;;;;22.40;83.00;;;;;;5115465;28;20277;-53
2023/04/24 02:49:37;;;;;;;;;;;22.40;82.80;;;;;;5115078;28;19911;-51
2023/04/24 02:52:02;;;;;;;;;;;22.40;83.10;;;;;;5115010;28;19908;-50
2023/04/24 02:54:28;;;;;;;;;;;22.40;83.20;;;;;;5114040;28;19915;-53
2023/04/24 02:56:53;;;;;;;;;;;22.30;83.40;;;;;;5114862;28;19955;-53
2023/04/24 02:59:19;;;;;;;;;;;22.30;83.30;;;;;;5114981;28;19992;-53
2023/04/24 03:01:44;;;;;;;;;;;22.20;83.40;;;;;;5115233;28;19908;-55
2023/04/24 03:04:10;;;;;;;;;;;22.10;83.60;;;;;;5114992;28;19933;-50
2023/04/24 03:06:35;;;;;;;;;;;22.10;83.80;;;;;;5114803;28;19908;-50
2023/04/24 03:09:01;;;;;;;;;;;22.00;83.80;;;;;;5114723;28;19943;-56
2023/04/24 03:11:26;;;;;;;;;;;21.90;83.80;;;;;;5115002;28;20018;-53
2023/04/24 03:13:52;;;;;;;;;;;21.90;84.20;;;;;;5114856;28;20247;-52
2023/04/24 03:16:17;;;;;;;;;;;21.90;84.40;;;;;;5114534;28;19918;-55
2023/04/24 03:18:43;;;;;;;;;;;21.80;84.40;;;;;;5114940;28;19912;-50
2023/04/24 03:21:08;;;;;;;;;;;21.80;84.60;;;;;;5114551;28;19912;-53
2023/04/24 03:23:34;;;;;;;;;;;21.80;84.90;;;;;;5114830;28;20002;-52
2023/04/24 03:25:59;;;;;;;;;;;21.70;84.90;;;;;;5115149;28;20369;-54
2023/04/24 03:28:25;;;;;;;;;;;21.70;85.00;;;;;;5114731;28;19933;-56
2023/04/24 03:30:50;;;;;;;;;;;21.70;85.00;;;;;;5114754;28;20350;-55
2023/04/24 03:33:16;;;;;;;;;;;21.80;85.00;;;;;;5114389;28;19907;-50
2023/04/24 03:35:41;;;;;;;;;;;21.90;84.60;;;;;;5114597;28;19912;-53
2023/04/24 03:38:07;;;;;;;;;;;22.00;84.60;;;;;;5113261;28;19923;-52
2023/04/24 03:40:33;;;;;;;;;;;22.10;84.50;;;;;;5114406;28;19908;-56
2023/04/24 03:42:58;;;;;;;;;;;22.20;84.10;;;;;;5114512;28;19949;-53
2023/04/24 03:45:24;;;;;;;;;;;22.30;83.50;;;;;;5113315;28;19907;-50
2023/04/24 03:47:49;;;;;;;;;;;22.30;83.50;;;;;;5113305;28;19908;-55
2023/04/24 03:50:15;;;;;;;;;;;22.30;83.20;;;;;;5114550;28;19915;-51
2023/04/24 03:52:40;;;;;;;;;;;22.30;83.20;;;;;;5114829;28;20388;-53
2023/04/24 03:55:06;;;;;;;;;;;22.30;83.30;;;;;;5114306;28;19908;-51
2023/04/24 03:57:32;;;;;;;;;;;22.30;83.50;;;;;;5114458;28;19962;-55
2023/04/24 03:59:57;;;;;;;;;;;22.20;83.70;;;;;;5114497;28;19919;-53
2023/04/24 04:02:23;;;;;;;;;;;22.10;83.80;;;;;;5114226;28;19908;-50
2023/04/24 04:04:48;;;;;;;;;;;22.10;83.70;;;;;;5114347;28;19912;-50
2023/04/24 04:07:14;;;;;;;;;;;22.00;84.00;;;;;;5114071;28;19908;-55
2023/04/24 04:09:39;;;;;;;;;;;22.00;84.10;;;;;;5114069;28;19995;-54
2023/04/24 04:12:05;;;;;;;;;;;21.90;84.00;;;;;;5114044;28;19969;-55
2023/04/24 04:14:30;;;;;;;;;;;21.90;84.20;;;;;;5114040;28;19962;-52
2023/04/24 04:16:55;;;;;;;;;;;21.80;84.30;;;;;;5114270;28;20435;-51
2023/04/24 04:19:21;;;;;;;;;;;21.80;84.50;;;;;;5114323;28;20026;-55
2023/04/24 04:21:51;;;;;;;;;;;21.80;84.70;;;;;;5115895;28;19961;-50
2023/04/24 04:24:17;;;;;;;;;;;21.80;84.90;;;;;;5118220;28;19908;-49
2023/04/24 04:26:46;;;;;;;;;;;21.80;84.80;;;;;;5117724;28;19931;-50
2023/04/24 04:29:11;;;;;;;;;;;21.80;84.80;;;;;;5117967;28;19908;-56
2023/04/24 04:31:37;;;;;;;;;;;21.90;84.70;;;;;;5115381;28;20318;-51
2023/04/24 04:34:03;;;;;;;;;;;22.00;84.70;;;;;;5117432;28;19915;-54
2023/04/24 04:36:29;;;;;;;;;;;22.10;84.50;;;;;;5117635;28;20022;-53
2023/04/24 04:38:54;;;;;;;;;;;22.30;84.10;;;;;;5117424;28;19912;-51
2023/04/24 04:41:20;;;;;;;;;;;22.40;83.70;;;;;;5112189;28;19912;-55
2023/04/24 04:43:46;;;;;;;;;;;22.50;83.70;;;;;;5117473;28;19922;-54
2023/04/24 04:46:11;;;;;;;;;;;22.40;83.20;;;;;;5117414;28;19904;-49
2023/04/24 04:48:37;;;;;;;;;;;22.40;83.50;;;;;;5111779;27;19912;-56
2023/04/24 04:51:05;;;;;;;;;;;22.40;83.50;;;;;;5121458;27;20295;-54
2023/04/24 04:53:30;;;;;;;;;;;22.40;83.40;;;;;;5120476;27;20381;-52
2023/04/24 04:55:56;;;;;;;;;;;22.30;83.40;;;;;;5127217;27;19911;-53
2023/04/24 04:58:21;;;;;;;;;;;22.30;83.20;;;;;;5130479;27;19911;-52
2023/04/24 05:00:47;;;;;;;;;;;22.30;83.80;;;;;;5124611;27;19920;-52
2023/04/24 05:03:12;;;;;;;;;;;22.20;83.10;;;;;;5119245;27;20265;-53
2023/04/24 05:05:40;;;;;;;;;;;22.10;83.30;;;;;;5120297;27;19923;-55
2023/04/24 05:08:08;;;;;;;;;;;22.10;84.20;;;;;;5125200;27;19911;-59
2023/04/24 05:10:34;;;;;;;;;;;22.10;84.60;;;;;;5132784;27;19953;-60
2023/04/24 05:13:00;;;;;;;;;;;22.00;84.60;;;;;;5115810;28;20002;-55
2023/04/24 05:15:26;;;;;;;;;;;22.00;84.70;;;;;;5121509;27;19911;-55
2023/04/24 05:17:51;;;;;;;;;;;21.90;85.00;;;;;;5116893;28;20266;-60
2023/04/24 05:20:17;;;;;;;;;;;21.90;85.10;;;;;;5118413;27;19926;-56
2023/04/24 05:22:42;;;;;;;;;;;21.90;85.40;;;;;;5137444;27;19914;-57
2023/04/24 05:25:08;;;;;;;;;;;21.90;85.60;;;;;;5135317;27;19947;-59
2023/04/24 05:27:34;;;;;;;;;;;21.90;85.60;;;;;;5137322;27;19907;-55
2023/04/24 05:29:59;;;;;;;;;;;22.00;85.70;;;;;;5133604;27;19922;-58
2023/04/24 05:32:26;;;;;;;;;;;22.10;85.50;;;;;;5131609;27;19926;-59
2023/04/24 05:34:52;;;;;;;;;;;22.20;85.30;;;;;;5115203;28;20380;-60
2023/04/24 05:37:18;;;;;;;;;;;22.40;85.00;;;;;;5117998;27;20010;-58
2023/04/24 05:39:43;;;;;;;;;;;22.40;84.80;;;;;;5114995;27;19916;-58
2023/04/24 05:42:08;;;;;;;;;;;22.40;84.60;;;;;;5118639;27;20443;-61
2023/04/24 05:44:34;;;;;;;;;;;22.40;84.50;;;;;;5128652;27;19912;-61
2023/04/24 05:47:00;;;;;;;;;;;22.50;84.60;;;;;;5133987;27;20338;-56
2023/04/24 05:49:26;;;;;;;;;;;22.40;84.40;;;;;;5133149;27;19911;-59
2023/04/24 05:51:51;;;;;;;;;;;22.40;84.70;;;;;;5126565;27;19912;-55
2023/04/24 05:54:16;;;;;;;;;;;22.30;84.70;;;;;;5133038;27;19911;-54
2023/04/24 05:56:42;;;;;;;;;;;22.30;83.30;;;;;;5114878;27;20061;-54
2023/04/24 05:59:08;;;;;;;;;;;22.20;79.60;;;;;;5117281;27;19985;-56
2023/04/24 06:01:34;;;;;;;;;;;22.00;82.00;;;;;;5133876;27;19918;-56
2023/04/24 06:04:00;;;;;;;;;;;22.00;83.60;;;;;;5134427;27;19912;-58
2023/04/24 06:06:26;;;;;;;;;;;22.00;84.30;;;;;;5136444;27;19995;-56
2023/04/24 06:08:52;;;;;;;;;;;21.90;84.80;;;;;;5134320;27;19969;-52
2023/04/24 06:11:17;;;;;;;;;;;21.90;84.90;;;;;;5133532;27;19916;-58
2023/04/24 06:13:43;;;;;;;;;;;21.90;85.20;;;;;;5132314;27;19911;-54
2023/04/24 06:16:08;;;;;;;;;;;21.80;85.20;;;;;;5136086;27;20019;-58
2023/04/24 06:18:34;;;;;;;;;;;21.80;85.40;;;;;;5133699;27;19915;-55
2023/04/24 06:20:59;;;;;;;;;;;21.80;85.50;;;;;;5135903;27;19912;-58
2023/04/24 06:23:25;;;;;;;;;;;21.90;85.70;;;;;;5133403;27;19911;-60
2023/04/24 06:25:51;;;;;;;;;;;21.90;85.60;;;;;;5132716;27;19947;-58
2023/04/24 06:28:16;;;;;;;;;;;22.00;85.60;;;;;;5129807;27;19950;-57
2023/04/24 06:30:43;;;;;;;;;;;22.10;85.30;;;;;;5131613;27;19958;-59
2023/04/24 06:33:08;;;;;;;;;;;22.20;85.00;;;;;;5135999;27;19960;-54
2023/04/24 06:35:34;;;;;;;;;;;22.30;84.70;;;;;;5134108;27;19916;-56
2023/04/24 06:37:59;;;;;;;;;;;22.40;84.50;;;;;;5133188;27;19958;-57
2023/04/24 06:40:25;;;;;;;;;;;22.40;84.40;;;;;;5133903;27;19955;-57
2023/04/24 06:42:50;;;;;;;;;;;22.40;84.50;;;;;;5134360;27;19926;-60
2023/04/24 06:45:15;;;;;;;;;;;22.40;84.50;;;;;;5127406;27;20092;-57
2023/04/24 06:47:41;;;;;;;;;;;22.40;84.30;;;;;;5113132;28;19917;-55
2023/04/24 06:50:07;;;;;;;;;;;22.20;80.50;;;;;;5130370;27;19911;-58
2023/04/24 06:52:32;;;;;;;;;;;22.20;82.50;;;;;;5135579;27;19984;-58
2023/04/24 06:55:02;;;;;;;;;;;22.10;83.50;;;;;;5135495;27;19907;-56
2023/04/24 06:57:28;;;;;;;;;;;22.10;83.70;;;;;;5135417;27;19912;-55
2023/04/24 06:59:54;;;;;;;;;;;22.00;83.90;;;;;;5135336;27;20030;-54
2023/04/24 07:02:19;;;;;;;;;;;22.00;84.10;;;;;;5135259;27;19922;-54
2023/04/24 07:04:47;;;;;;;;;;;22.00;84.20;;;;;;5135307;27;20262;-55
2023/04/24 07:07:14;;;;;;;;;;;22.00;84.40;;;;;;5135342;27;19907;-56
2023/04/24 07:09:40;;;;;;;;;;;21.90;84.40;;;;;;5135203;27;19911;-56
2023/04/24 07:12:07;;;;;;;;;;;21.90;84.60;;;;;;5135064;27;19908;-55
2023/04/24 07:14:32;;;;;;;;;;;21.80;84.50;;;;;;5133545;27;19959;-53
2023/04/24 07:16:58;;;;;;;;;;;21.80;84.70;;;;;;5134623;27;19911;-54
2023/04/24 07:19:23;;;;;;;;;;;21.80;84.80;;;;;;5135259;27;19918;-55
2023/04/24 07:21:49;;;;;;;;;;;21.90;85.00;;;;;;5134625;27;19912;-56
2023/04/24 07:24:15;;;;;;;;;;;21.90;84.80;;;;;;5135048;27;19914;-56
2023/04/24 07:26:40;;;;;;;;;;;21.90;84.60;;;;;;5135000;27;20262;-56
2023/04/24 07:29:06;;;;;;;;;;;22.00;84.50;;;;;;5134942;27;19907;-50
2023/04/24 07:31:32;;;;;;;;;;;22.10;84.20;;;;;;5121149;27;20343;-55
2023/04/24 07:33:58;;;;;;;;;;;22.20;83.70;;;;;;5122206;27;19912;-56
2023/04/24 07:36:24;;;;;;;;;;;22.40;83.70;;;;;;5124322;27;19915;-56
2023/04/24 07:38:49;;;;;;;;;;;22.40;83.40;;;;;;5134957;27;20565;-57
2023/04/24 07:41:15;;;;;;;;;;;22.50;83.30;;;;;;5112587;27;19938;-55
2023/04/24 07:43:41;;;;;;;;;;;22.60;83.30;;;;;;5130151;28;20455;-60
2023/04/24 07:46:07;;;;;;;;;;;22.60;83.10;;;;;;5114613;27;19957;-56
2023/04/24 07:48:32;;;;;;;;;;;22.60;83.00;;;;;;5112128;28;19920;-57
2023/04/24 07:50:58;;;;;;;;;;;22.50;82.90;;;;;;5112042;28;19962;-53
2023/04/24 07:53:23;;;;;;;;;;;22.50;83.00;;;;;;5113093;28;19912;-59
2023/04/24 07:55:49;;;;;;;;;;;22.50;83.30;;;;;;5116060;28;19919;-55
2023/04/24 07:58:15;;;;;;;;;;;22.40;83.50;;;;;;5117439;28;19916;-59
2023/04/24 08:00:40;;;;;;;;;;;22.40;83.70;;;;;;5121738;27;20361;-58
2023/04/24 08:03:06;;;;;;;;;;;22.30;84.00;;;;;;5136577;27;19919;-59
2023/04/24 08:05:31;;;;;;;;;;;22.30;84.10;;;;;;5138870;27;20068;-59
2023/04/24 08:07:57;;;;;;;;;;;22.20;84.20;;;;;;5132331;27;20392;-58
2023/04/24 08:10:23;;;;;;;;;;;22.20;84.20;;;;;;5116861;28;19919;-58
2023/04/24 08:12:48;;;;;;;;;;;22.10;84.30;;;;;;5116320;27;20340;-56
2023/04/24 08:15:13;;;;;;;;;;;22.10;84.60;;;;;;5128116;27;19951;-56
2023/04/24 08:17:39;;;;;;;;;;;22.10;84.80;;;;;;5122749;27;19919;-57
2023/04/24 08:20:05;;;;;;;;;;;22.00;84.30;;;;;;5125363;27;19993;-50
2023/04/24 08:22:31;;;;;;;;;;;22.00;80.50;;;;;;5097750;28;20263;-52
2023/04/24 08:24:57;;;;;;;;;;;22.00;82.50;;;;;;5124987;27;19935;-56
2023/04/24 08:27:23;;;;;;;;;;;22.00;83.50;;;;;;5118355;27;19914;-58
2023/04/24 08:29:49;;;;;;;;;;;22.10;84.40;;;;;;5119530;27;19907;-52
2023/04/24 08:32:14;;;;;;;;;;;22.10;83.50;;;;;;5124049;27;20144;-52
2023/04/24 08:34:40;;;;;;;;;;;22.00;76.30;;;;;;5123576;27;19943;-55
2023/04/24 08:37:05;;;;;;;;;;;21.90;77.00;;;;;;5117623;28;20295;-51
2023/04/24 08:39:31;;;;;;;;;;;21.80;78.90;;;;;;5120413;27;19922;-52
2023/04/24 08:41:56;;;;;;;;;;;21.80;79.10;;;;;;5121951;27;19918;-55
2023/04/24 08:44:22;;;;;;;;;;;21.90;79.90;;;;;;5116702;28;20020;-55
2023/04/24 08:46:48;;;;;;;;;;;21.90;80.90;;;;;;5116604;28;19912;-54
2023/04/24 08:49:16;;;;;;;;;;;21.90;81.10;;;;;;5113265;28;20263;-56
2023/04/24 08:51:41;;;;;;;;;;;21.90;81.40;;;;;;5116436;28;19998;-53
2023/04/24 08:54:08;;;;;;;;;;;22.00;81.80;;;;;;5128801;27;19992;-54
2023/04/24 08:56:34;;;;;;;;;;;21.90;82.00;;;;;;5132320;27;19926;-54
2023/04/24 08:58:59;;;;;;;;;;;21.90;82.10;;;;;;5115784;28;20011;-55
2023/04/24 09:01:26;;;;;;;;;;;21.90;82.20;;;;;;5121913;27;19998;-51
2023/04/24 09:03:53;;;;;;;;;;;21.90;82.40;;;;;;5129217;27;19916;-51
2023/04/24 09:06:19;;;;;;;;;;;21.90;82.60;;;;;;5119987;27;19911;-54
2023/04/24 09:08:45;;;;;;;;;;;21.90;83.20;;;;;;5118595;27;19919;-51
2023/04/24 09:11:11;;;;;;;;;;;21.90;83.60;;;;;;5135545;27;19956;-52
2023/04/24 09:13:37;;;;;;;;;;;21.70;78.00;;;;;;5125493;27;19912;-53
2023/04/24 09:16:02;;;;;;;;;;;21.70;80.40;;;;;;5116552;28;20013;-51
2023/04/24 09:18:28;;;;;;;;;;;21.70;81.50;;;;;;5116714;28;19916;-54
2023/04/24 09:21:00;;;;;;;;;;;21.70;82.10;;;;;;5116825;28;19915;-54
2023/04/24 09:23:27;;;;;;;;;;;21.80;82.40;;;;;;5117184;28;19908;-55
2023/04/24 09:25:54;;;;;;;;;;;21.80;82.50;;;;;;5116572;28;19908;-55
2023/04/24 09:28:24;;;;;;;;;;;21.90;82.60;;;;;;5116697;28;19918;-56
2023/04/24 09:31:01;;;;;;;;;;;22.00;82.70;;;;;;5116576;28;19908;-54
2023/04/24 09:33:26;;;;;;;;;;;22.00;82.40;;;;;;5116736;28;19908;-53
2023/04/24 09:35:52;;;;;;;;;;;22.10;82.30;;;;;;5116584;28;19918;-54
2023/04/24 09:38:18;;;;;;;;;;;22.10;82.20;;;;;;5116696;28;19994;-52
2023/04/24 09:40:43;;;;;;;;;;;22.10;82.00;;;;;;5116350;28;19915;-56
2023/04/24 09:43:12;;;;;;;;;;;22.10;82.00;;;;;;5116201;27;20002;-55
2023/04/24 09:45:38;;;;;;;;;;;22.10;82.00;;;;;;5115971;28;20303;-54
2023/04/24 09:48:06;;;;;;;;;;;22.10;82.00;;;;;;5116505;28;19991;-56
2023/04/24 09:50:31;;;;;;;;;;;22.10;82.00;;;;;;5116375;28;20274;-56
2023/04/24 09:52:58;;;;;;;;;;;22.00;82.00;;;;;;5115787;28;19908;-52
2023/04/24 09:55:24;;;;;;;;;;;22.00;82.20;;;;;;5116148;28;20338;-56
2023/04/24 09:57:55;;;;;;;;;;;22.00;82.30;;;;;;5114292;28;20147;-52
2023/04/24 10:00:27;;;;;;;;;;;22.00;82.60;;;;;;5115979;28;20010;-54
2023/04/24 10:02:56;;;;;;;;;;;21.90;82.70;;;;;;5116318;28;19951;-55
2023/04/24 10:05:23;;;;;;;;;;;21.90;82.60;;;;;;5116012;28;19908;-54
2023/04/24 10:07:48;;;;;;;;;;;21.90;82.60;;;;;;5115869;28;19919;-53
2023/04/24 10:10:14;;;;;;;;;;;21.90;83.10;;;;;;5115845;28;19908;-55
2023/04/24 10:12:40;;;;;;;;;;;21.90;83.30;;;;;;5115951;28;20373;-56
2023/04/24 10:15:06;;;;;;;;;;;21.90;83.50;;;;;;5116057;28;20002;-56
2023/04/24 10:17:32;;;;;;;;;;;21.80;83.60;;;;;;5115261;27;19911;-55
2023/04/24 10:19:58;;;;;;;;;;;21.80;83.70;;;;;;5114670;28;19919;-54
2023/04/24 10:22:24;;;;;;;;;;;21.90;83.70;;;;;;5115233;28;20370;-54
2023/04/24 10:24:50;;;;;;;;;;;21.90;83.70;;;;;;5115528;28;19912;-54
2023/04/24 10:27:16;;;;;;;;;;;22.00;83.60;;;;;;5115126;28;20283;-55
2023/04/24 10:29:43;;;;;;;;;;;22.10;83.50;;;;;;5115018;28;19908;-55
2023/04/24 10:32:09;;;;;;;;;;;22.10;83.30;;;;;;5115274;28;20251;-53
2023/04/24 10:34:35;;;;;;;;;;;22.20;83.10;;;;;;5115288;27;19908;-53
2023/04/24 10:37:01;;;;;;;;;;;22.30;82.90;;;;;;5114811;28;19980;-54
2023/04/24 10:39:27;;;;;;;;;;;22.40;82.60;;;;;;5115005;28;19918;-55
2023/04/24 10:41:53;;;;;;;;;;;22.40;82.50;;;;;;5115297;27;19908;-54
2023/04/24 10:44:22;;;;;;;;;;;22.50;82.30;;;;;;5115402;28;19919;-54
2023/04/24 10:46:52;;;;;;;;;;;22.50;82.20;;;;;;5113810;28;19908;-52
2023/04/24 10:49:27;;;;;;;;;;;22.60;82.20;;;;;;5115065;28;19908;-54
2023/04/24 10:51:53;;;;;;;;;;;22.60;82.20;;;;;;5115062;28;19908;-51
2023/04/24 10:54:25;;;;;;;;;;;22.50;82.00;;;;;;5114997;28;20002;-54
2023/04/24 10:56:51;;;;;;;;;;;22.50;82.00;;;;;;5114837;28;20377;-56
2023/04/24 10:59:27;;;;;;;;;;;22.50;82.00;;;;;;5114622;28;20011;-55
2023/04/24 11:01:54;;;;;;;;;;;22.40;82.00;;;;;;5114719;28;19995;-54
2023/04/24 11:04:29;;;;;;;;;;;22.40;82.30;;;;;;5114887;28;19919;-55
2023/04/24 11:06:55;;;;;;;;;;;22.40;82.40;;;;;;5114779;28;19908;-53
2023/04/24 11:09:21;;;;;;;;;;;22.30;82.50;;;;;;5114513;28;19954;-54
2023/04/24 11:11:46;;;;;;;;;;;22.30;82.70;;;;;;5114728;28;20321;-55
2023/04/24 11:14:15;;;;;;;;;;;22.30;82.70;;;;;;5114342;28;19908;-54
2023/04/24 11:16:40;;;;;;;;;;;22.30;82.70;;;;;;5114470;28;19911;-55
2023/04/24 11:19:06;;;;;;;;;;;22.30;82.40;;;;;;5114767;28;19911;-55
2023/04/24 11:21:44;;;;;;;;;;;22.20;82.20;;;;;;5114656;28;20427;-54
2023/04/24 11:24:26;;;;;;;;;;;22.20;82.20;;;;;;5114446;28;19923;-54
2023/04/24 11:26:53;;;;;;;;;;;22.20;82.50;;;;;;5114150;28;20365;-54
2023/04/24 11:29:20;;;;;;;;;;;22.20;82.60;;;;;;5112912;28;19939;-54
2023/04/24 11:31:50;;;;;;;;;;;22.20;82.80;;;;;;5113819;28;19915;-56
2023/04/24 11:34:16;;;;;;;;;;;22.20;82.80;;;;;;5114074;28;19934;-55
2023/04/24 11:36:42;;;;;;;;;;;22.20;82.80;;;;;;5114248;28;19912;-54
2023/04/24 11:39:08;;;;;;;;;;;22.20;82.80;;;;;;5112916;28;19916;-55
2023/04/24 11:41:34;;;;;;;;;;;22.30;82.70;;;;;;5114172;28;20460;-55
2023/04/24 11:44:00;;;;;;;;;;;22.30;82.70;;;;;;5113885;28;19920;-55
2023/04/24 11:46:27;;;;;;;;;;;22.30;82.50;;;;;;5114316;28;19908;-51
2023/04/24 11:48:53;;;;;;;;;;;22.30;82.50;;;;;;5113682;28;19933;-58
2023/04/24 11:51:18;;;;;;;;;;;22.30;82.40;;;;;;5114264;28;20374;-54
2023/04/24 11:53:44;;;;;;;;;;;22.40;82.60;;;;;;5114218;28;19938;-55
2023/04/24 11:56:09;;;;;;;;;;;22.40;82.50;;;;;;5113709;28;20018;-54
2023/04/24 11:58:35;;;;;;;;;;;22.40;82.60;;;;;;5114023;28;19919;-56
2023/04/24 12:01:01;;;;;;;;;;;22.40;82.50;;;;;;5114044;28;19907;-53
2023/04/24 12:03:26;;;;;;;;;;;22.50;82.50;;;;;;5113941;28;20489;-52
2023/04/24 12:05:52;;;;;;;;;;;22.40;82.30;;;;;;5113770;28;19912;-55
2023/04/24 12:08:27;;;;;;;;;;;22.40;81.80;;;;;;5113651;28;19939;-54
2023/04/24 12:10:53;;;;;;;;;;;22.40;81.70;;;;;;5113578;28;20320;-54
2023/04/24 12:13:18;;;;;;;;;;;22.40;81.90;;;;;;5114023;28;19908;-55
2023/04/24 12:15:43;;;;;;;;;;;22.40;81.90;;;;;;5113739;28;19908;-54
2023/04/24 12:18:11;;;;;;;;;;;22.30;81.90;;;;;;5113648;28;19960;-54
2023/04/24 12:20:36;;;;;;;;;;;22.40;81.90;;;;;;5113927;28;19916;-54
2023/04/24 12:23:02;;;;;;;;;;;22.30;81.80;;;;;;5113604;28;19908;-56
2023/04/24 12:25:29;;;;;;;;;;;22.30;82.00;;;;;;5113639;28;20006;-55
2023/04/24 12:27:55;;;;;;;;;;;22.30;82.40;;;;;;5113942;28;19952;-55
2023/04/24 12:30:20;;;;;;;;;;;22.30;82.00;;;;;;5113854;28;20002;-56
2023/04/24 12:32:47;;;;;;;;;;;22.30;82.00;;;;;;5113639;28;19915;-55
2023/04/24 12:35:13;;;;;;;;;;;22.30;82.20;;;;;;5113651;27;20008;-52
2023/04/24 12:37:42;;;;;;;;;;;22.30;82.10;;;;;;5112400;28;20390;-54
2023/04/24 12:40:09;;;;;;;;;;;22.30;81.70;;;;;;5113731;28;19924;-54
2023/04/24 12:42:35;;;;;;;;;;;22.30;81.90;;;;;;5113469;28;20019;-52
2023/04/24 12:45:02;;;;;;;;;;;22.30;81.90;;;;;;5117585;28;19955;-54
2023/04/24 12:47:28;;;;;;;;;;;22.30;82.10;;;;;;5117235;27;20003;-54
2023/04/24 12:49:55;;;;;;;;;;;22.30;81.90;;;;;;5117367;28;19914;-55
2023/04/24 12:52:21;;;;;;;;;;;22.30;82.10;;;;;;5115967;28;19908;-55
2023/04/24 12:54:47;;;;;;;;;;;22.30;82.00;;;;;;5117250;27;20002;-53
2023/04/24 12:57:12;;;;;;;;;;;22.30;82.00;;;;;;5116761;28;20010;-55
2023/04/24 12:59:39;;;;;;;;;;;22.30;81.80;;;;;;5117002;28;20065;-55
2023/04/24 13:02:04;;;;;;;;;;;22.30;81.50;;;;;;5116760;28;20407;-54
2023/04/24 13:04:30;;;;;;;;;;;22.30;81.00;;;;;;5116967;28;20013;-54
2023/04/24 13:06:55;;;;;;;;;;;22.30;81.30;;;;;;5117124;28;19914;-53
2023/04/24 13:09:21;;;;;;;;;;;22.30;81.20;;;;;;5117044;28;19907;-53
2023/04/24 13:11:46;;;;;;;;;;;22.30;81.30;;;;;;5116992;27;19908;-54
2023/04/24 13:14:12;;;;;;;;;;;22.20;81.20;;;;;;5117057;27;19969;-54
2023/04/24 13:16:37;;;;;;;;;;;22.20;81.20;;;;;;5116823;28;20330;-55
2023/04/24 13:19:03;;;;;;;;;;;22.20;81.20;;;;;;5116857;28;19912;-55
2023/04/24 13:21:30;;;;;;;;;;;22.10;81.20;;;;;;5116366;27;20136;-53
2023/04/24 13:23:55;;;;;;;;;;;22.10;81.50;;;;;;5116723;28;19915;-54
2023/04/24 13:26:21;;;;;;;;;;;22.10;81.70;;;;;;5116961;28;19908;-54
2023/04/24 13:28:47;;;;;;;;;;;22.10;81.90;;;;;;5116858;28;19947;-55
2023/04/24 13:31:13;;;;;;;;;;;22.10;82.00;;;;;;5116572;28;19931;-55
2023/04/24 13:33:39;;;;;;;;;;;22.00;81.90;;;;;;5116543;28;19912;-52
2023/04/24 13:36:04;;;;;;;;;;;22.00;82.00;;;;;;5116158;28;19911;-52
2023/04/24 13:38:29;;;;;;;;;;;22.00;82.10;;;;;;5116072;28;19919;-56
2023/04/24 13:40:55;;;;;;;;;;;22.00;82.10;;;;;;5116310;28;19907;-51
2023/04/24 13:43:20;;;;;;;;;;;22.00;82.10;;;;;;5116194;28;19927;-53
2023/04/24 13:45:46;;;;;;;;;;;22.00;82.00;;;;;;5115999;28;19908;-51
2023/04/24 13:48:11;;;;;;;;;;;22.00;82.00;;;;;;5116218;28;20316;-52
2023/04/24 13:50:37;;;;;;;;;;;22.00;82.30;;;;;;5115840;28;19907;-55
2023/04/24 13:53:02;;;;;;;;;;;22.00;82.00;;;;;;5115923;28;19920;-56
2023/04/24 13:55:28;;;;;;;;;;;22.00;81.80;;;;;;5115603;28;19907;-52
2023/04/24 13:57:54;;;;;;;;;;;22.00;81.80;;;;;;5115739;28;19915;-55
2023/04/24 14:00:20;;;;;;;;;;;22.00;81.70;;;;;;5115866;28;19915;-56
2023/04/24 14:02:46;;;;;;;;;;;22.00;81.70;;;;;;5116148;28;20011;-55
2023/04/24 14:05:13;;;;;;;;;;;22.00;81.70;;;;;;5116051;28;20312;-55
2023/04/24 14:07:39;;;;;;;;;;;22.10;81.60;;;;;;5115824;28;19914;-54
2023/04/24 14:10:05;;;;;;;;;;;22.10;81.60;;;;;;5115757;28;19908;-54